Terminal Aerodrome Forecast
Issued by NWS Central Illinois

Home | Current Version | Previous Version | Text Only | Print | Product List | Glossary On
Versions: 1 2 3 4 5 6 7 8 9 10 11 12 13 14 15 16 17 18 19 20 21 22 23 24 25
000
FTUS43 KILX 250700 AAA
TAFPIA
TAF AMD
KPIA 250700Z 2507/2606 27012KT P6SM OVC020
     FM251000 26011KT P6SM OVC015
      TEMPO 2511/2513 4SM BR OVC007
     FM251300 22010KT P6SM OVC012
     FM251800 19012G20KT P6SM SCT250=

USA.gov is the U.S. government's official web portal to all federal, state and local government web resources and services.